createdAt,value
2019-05-10T00:01:27.888Z,13
2019-05-10T00:11:27.746Z,13
2019-05-10T00:21:27.598Z,13
2019-05-10T00:31:27.487Z,12
2019-05-10T00:41:27.603Z,13
2019-05-10T00:51:27.067Z,12
2019-05-10T01:01:27.622Z,12
2019-05-10T01:11:27.343Z,13
2019-05-10T01:21:27.746Z,13
2019-05-10T01:31:27.442Z,12
2019-05-10T01:41:27.494Z,13
2019-05-10T01:51:29.411Z,12
2019-05-10T02:01:27.251Z,13
2019-05-10T02:11:29.759Z,12
2019-05-10T02:21:27.336Z,12
2019-05-10T02:31:27.210Z,12
2019-05-10T02:41:28.247Z,12
2019-05-10T02:51:27.317Z,13
2019-05-10T03:01:26.989Z,12
2019-05-10T03:11:27.820Z,13
2019-05-10T03:21:27.490Z,12
2019-05-10T03:31:27.333Z,12
2019-05-10T03:41:27.011Z,12
2019-05-10T03:51:28.160Z,12
2019-05-10T04:01:27.655Z,12
2019-05-10T04:11:27.274Z,12
2019-05-10T04:21:27.232Z,12
2019-05-10T04:31:28.603Z,12
2019-05-10T04:41:27.499Z,12
2019-05-10T04:51:27.617Z,12
2019-05-10T05:01:27.203Z,12
2019-05-10T05:11:28.100Z,13
2019-05-10T05:21:26.836Z,13
2019-05-10T05:31:27.721Z,13
2019-05-10T05:41:27.302Z,13
2019-05-10T05:51:29.467Z,13
2019-05-10T06:01:30.948Z,13
2019-05-10T06:11:37.832Z,14
2019-05-10T06:21:28.164Z,14
2019-05-10T06:31:28.130Z,14
2019-05-10T06:41:28.003Z,14
2019-05-10T06:51:28.055Z,14
2019-05-10T07:01:28.113Z,14
2019-05-10T07:11:30.853Z,15
2019-05-10T07:21:27.557Z,15
2019-05-10T07:31:28.581Z,15
2019-05-10T07:41:30.116Z,15
2019-05-10T07:51:31.047Z,15
2019-05-10T08:01:36.621Z,16
2019-05-10T08:11:29.834Z,16
2019-05-10T08:21:27.924Z,16
2019-05-10T08:31:40.774Z,16
2019-05-10T08:41:28.674Z,16
2019-05-10T08:51:28.390Z,16
2019-05-10T09:01:46.314Z,16
2019-05-10T09:11:28.421Z,16
2019-05-10T09:21:27.789Z,16
2019-05-10T09:31:27.911Z,17
2019-05-10T09:41:38.328Z,17
2019-05-10T09:51:42.004Z,18
2019-05-10T10:01:29.498Z,17
2019-05-10T10:11:29.213Z,18
2019-05-10T10:21:39.629Z,17
2019-05-10T10:31:52.846Z,18
2019-05-10T10:41:33.055Z,18
2019-05-10T10:51:41.122Z,18
2019-05-10T11:02:24.013Z,18
2019-05-10T11:11:44.937Z,18
2019-05-10T11:21:33.853Z,18
2019-05-10T11:31:27.562Z,18
2019-05-10T11:41:28.625Z,19
2019-05-10T11:51:28.251Z,19
2019-05-10T12:01:28.211Z,19
2019-05-10T12:13:33.436Z,19
2019-05-10T12:21:26.655Z,19
2019-05-10T12:31:26.510Z,20
2019-05-10T12:41:32.910Z,18
2019-05-10T12:51:26.576Z,18
2019-05-10T13:01:33.921Z,18
2019-05-10T13:11:28.989Z,19
2019-05-10T13:21:31.602Z,18
2019-05-10T13:31:26.362Z,19
2019-05-10T13:41:27.807Z,19
2019-05-10T13:52:40.961Z,19
2019-05-10T14:01:28.251Z,19
2019-05-10T14:11:27.087Z,18
2019-05-10T14:21:27.044Z,19
2019-05-10T14:31:27.853Z,18
2019-05-10T14:41:26.745Z,18
2019-05-10T14:51:59.631Z,18
2019-05-10T15:01:26.798Z,17
2019-05-10T15:11:33.230Z,17
2019-05-10T15:21:27.707Z,17
2019-05-10T15:31:31.723Z,17
2019-05-10T15:41:27.741Z,17
2019-05-10T15:51:37.537Z,17
2019-05-10T16:01:30.163Z,17
2019-05-10T16:11:26.798Z,17
2019-05-10T16:21:28.709Z,17
2019-05-10T16:31:27.565Z,17
2019-05-10T16:41:28.234Z,17
2019-05-10T16:51:27.438Z,16
2019-05-10T17:01:28.885Z,16
2019-05-10T17:11:28.560Z,16
2019-05-10T17:21:26.397Z,16
2019-05-10T17:31:26.460Z,16
2019-05-10T17:41:28.273Z,16
2019-05-10T17:51:27.013Z,16
2019-05-10T18:01:28.761Z,16
2019-05-10T18:11:26.360Z,16
2019-05-10T18:21:27.779Z,16
2019-05-10T18:31:27.419Z,16
2019-05-10T18:41:27.844Z,16
2019-05-10T18:51:27.865Z,16
2019-05-10T19:01:32.740Z,15
2019-05-10T19:11:32.974Z,16
2019-05-10T19:21:36.981Z,16
2019-05-10T19:31:40.777Z,15
2019-05-10T19:41:28.488Z,15
2019-05-10T19:51:27.360Z,15
2019-05-10T20:01:27.002Z,15
2019-05-10T20:11:27.571Z,15
2019-05-10T20:21:28.179Z,15
2019-05-10T20:31:30.335Z,15
2019-05-10T20:41:27.852Z,16
2019-05-10T20:51:27.571Z,15
2019-05-10T21:01:27.695Z,15
2019-05-10T21:11:27.838Z,15
2019-05-10T21:21:27.639Z,15
2019-05-10T21:31:27.215Z,15
2019-05-10T21:41:33.219Z,15
2019-05-10T21:51:29.775Z,15
2019-05-10T22:01:27.351Z,15
2019-05-10T22:11:28.058Z,15
2019-05-10T22:21:27.963Z,15
2019-05-10T22:31:27.754Z,15
2019-05-10T22:41:29.379Z,15
2019-05-10T22:51:27.985Z,15
2019-05-10T23:01:27.583Z,15
2019-05-10T23:11:28.950Z,15
2019-05-10T23:21:28.571Z,15
2019-05-10T23:31:35.213Z,14
2019-05-10T23:41:27.188Z,14
2019-05-10T23:51:28.935Z,14
